sensor_id;sensor_type;location;lat;lon;timestamp;P1;durP1;ratioP1;P2;durP2;ratioP2
51082;SDS011;37131;42.694;23.350;2023-08-07T00:00:02;0.75;;;0.25;;
51082;SDS011;37131;42.694;23.350;2023-08-07T00:02:29;0.45;;;0.20;;
51082;SDS011;37131;42.694;23.350;2023-08-07T00:04:54;0.57;;;0.38;;
51082;SDS011;37131;42.694;23.350;2023-08-07T00:07:19;0.50;;;0.20;;
51082;SDS011;37131;42.694;23.350;2023-08-07T00:09:45;0.75;;;0.40;;
51082;SDS011;37131;42.694;23.350;2023-08-07T00:12:10;0.60;;;0.30;;
51082;SDS011;37131;42.694;23.350;2023-08-07T00:14:36;0.77;;;0.30;;
51082;SDS011;37131;42.694;23.350;2023-08-07T00:17:01;1.10;;;0.30;;
51082;SDS011;37131;42.694;23.350;2023-08-07T00:19:27;0.98;;;0.30;;
51082;SDS011;37131;42.694;23.350;2023-08-07T00:21:53;0.30;;;0.20;;
51082;SDS011;37131;42.694;23.350;2023-08-07T00:24:18;1.25;;;0.30;;
51082;SDS011;37131;42.694;23.350;2023-08-07T00:26:43;0.88;;;0.30;;
51082;SDS011;37131;42.694;23.350;2023-08-07T00:29:09;0.60;;;0.30;;
51082;SDS011;37131;42.694;23.350;2023-08-07T00:31:34;0.82;;;0.30;;
51082;SDS011;37131;42.694;23.350;2023-08-07T00:34:00;0.90;;;0.43;;
51082;SDS011;37131;42.694;23.350;2023-08-07T00:36:25;1.42;;;0.50;;
51082;SDS011;37131;42.694;23.350;2023-08-07T00:38:53;0.60;;;0.30;;
51082;SDS011;37131;42.694;23.350;2023-08-07T00:41:19;0.60;;;0.30;;
51082;SDS011;37131;42.694;23.350;2023-08-07T00:43:45;0.38;;;0.28;;
51082;SDS011;37131;42.694;23.350;2023-08-07T00:46:10;0.77;;;0.40;;
51082;SDS011;37131;42.694;23.350;2023-08-07T00:48:36;0.93;;;0.40;;
51082;SDS011;37131;42.694;23.350;2023-08-07T00:51:01;0.98;;;0.40;;
51082;SDS011;37131;42.694;23.350;2023-08-07T00:53:29;1.05;;;0.57;;
51082;SDS011;37131;42.694;23.350;2023-08-07T00:55:55;1.33;;;0.50;;
51082;SDS011;37131;42.694;23.350;2023-08-07T00:58:22;1.42;;;0.63;;
51082;SDS011;37131;42.694;23.350;2023-08-07T01:00:48;0.70;;;0.40;;
51082;SDS011;37131;42.694;23.350;2023-08-07T01:03:14;1.73;;;0.50;;
51082;SDS011;37131;42.694;23.350;2023-08-07T01:05:40;1.27;;;0.57;;
51082;SDS011;37131;42.694;23.350;2023-08-07T01:08:05;0.80;;;0.50;;
51082;SDS011;37131;42.694;23.350;2023-08-07T01:13:37;1.20;;;0.60;;
51082;SDS011;37131;42.694;23.350;2023-08-07T01:16:07;2.33;;;0.57;;
51082;SDS011;37131;42.694;23.350;2023-08-07T01:18:38;0.75;;;0.43;;
51082;SDS011;37131;42.694;23.350;2023-08-07T01:21:05;1.20;;;0.60;;
51082;SDS011;37131;42.694;23.350;2023-08-07T01:23:31;1.05;;;0.60;;
51082;SDS011;37131;42.694;23.350;2023-08-07T01:25:56;1.23;;;0.80;;
51082;SDS011;37131;42.694;23.350;2023-08-07T01:28:36;1.30;;;0.73;;
51082;SDS011;37131;42.694;23.350;2023-08-07T01:31:07;1.70;;;0.90;;
51082;SDS011;37131;42.694;23.350;2023-08-07T01:34:09;1.55;;;0.80;;
51082;SDS011;37131;42.694;23.350;2023-08-07T01:36:29;1.75;;;0.75;;
51082;SDS011;37131;42.694;23.350;2023-08-07T01:38:56;2.28;;;1.08;;
51082;SDS011;37131;42.694;23.350;2023-08-07T01:41:24;1.25;;;0.80;;
51082;SDS011;37131;42.694;23.350;2023-08-07T01:43:50;2.20;;;0.90;;
51082;SDS011;37131;42.694;23.350;2023-08-07T01:46:16;1.88;;;0.82;;
51082;SDS011;37131;42.694;23.350;2023-08-07T01:48:42;1.65;;;0.90;;
51082;SDS011;37131;42.694;23.350;2023-08-07T01:51:07;3.15;;;1.00;;
51082;SDS011;37131;42.694;23.350;2023-08-07T01:53:33;1.80;;;1.10;;
51082;SDS011;37131;42.694;23.350;2023-08-07T01:55:58;2.00;;;0.98;;
51082;SDS011;37131;42.694;23.350;2023-08-07T01:58:24;2.25;;;1.00;;
51082;SDS011;37131;42.694;23.350;2023-08-07T02:00:49;1.55;;;0.98;;
51082;SDS011;37131;42.694;23.350;2023-08-07T02:03:14;2.88;;;0.93;;
51082;SDS011;37131;42.694;23.350;2023-08-07T02:05:40;1.77;;;1.00;;
51082;SDS011;37131;42.694;23.350;2023-08-07T02:08:05;1.50;;;1.00;;
51082;SDS011;37131;42.694;23.350;2023-08-07T02:10:31;1.95;;;0.80;;
51082;SDS011;37131;42.694;23.350;2023-08-07T02:12:57;1.25;;;0.80;;
51082;SDS011;37131;42.694;23.350;2023-08-07T02:15:23;1.42;;;0.98;;
51082;SDS011;37131;42.694;23.350;2023-08-07T02:17:48;2.08;;;1.02;;
51082;SDS011;37131;42.694;23.350;2023-08-07T02:20:14;1.88;;;1.00;;
51082;SDS011;37131;42.694;23.350;2023-08-07T02:22:39;1.70;;;1.10;;
51082;SDS011;37131;42.694;23.350;2023-08-07T02:25:05;1.90;;;1.02;;
51082;SDS011;37131;42.694;23.350;2023-08-07T02:27:30;1.95;;;1.00;;
51082;SDS011;37131;42.694;23.350;2023-08-07T02:29:56;1.40;;;0.90;;
51082;SDS011;37131;42.694;23.350;2023-08-07T02:32:21;1.75;;;1.15;;
51082;SDS011;37131;42.694;23.350;2023-08-07T02:34:46;1.35;;;0.90;;
51082;SDS011;37131;42.694;23.350;2023-08-07T02:37:12;2.88;;;1.30;;
51082;SDS011;37131;42.694;23.350;2023-08-07T02:39:37;1.67;;;0.98;;
51082;SDS011;37131;42.694;23.350;2023-08-07T02:42:03;1.33;;;0.90;;
51082;SDS011;37131;42.694;23.350;2023-08-07T02:44:28;1.17;;;0.68;;
51082;SDS011;37131;42.694;23.350;2023-08-07T02:46:54;1.63;;;1.02;;
51082;SDS011;37131;42.694;23.350;2023-08-07T02:49:19;1.33;;;0.90;;
51082;SDS011;37131;42.694;23.350;2023-08-07T02:51:44;1.70;;;1.00;;
51082;SDS011;37131;42.694;23.350;2023-08-07T02:54:10;1.90;;;0.68;;
51082;SDS011;37131;42.694;23.350;2023-08-07T02:56:35;1.70;;;1.20;;
51082;SDS011;37131;42.694;23.350;2023-08-07T02:59:01;2.63;;;1.20;;
51082;SDS011;37131;42.694;23.350;2023-08-07T03:01:26;1.90;;;0.98;;
51082;SDS011;37131;42.694;23.350;2023-08-07T03:03:52;2.08;;;1.30;;
51082;SDS011;37131;42.694;23.350;2023-08-07T03:06:18;2.42;;;1.30;;
51082;SDS011;37131;42.694;23.350;2023-08-07T03:08:43;2.13;;;1.10;;
51082;SDS011;37131;42.694;23.350;2023-08-07T03:11:09;2.85;;;1.30;;
51082;SDS011;37131;42.694;23.350;2023-08-07T03:13:34;1.48;;;0.80;;
51082;SDS011;37131;42.694;23.350;2023-08-07T03:16:00;2.05;;;1.30;;
51082;SDS011;37131;42.694;23.350;2023-08-07T03:18:29;2.83;;;1.00;;
51082;SDS011;37131;42.694;23.350;2023-08-07T03:20:55;1.80;;;1.05;;
51082;SDS011;37131;42.694;23.350;2023-08-07T03:23:21;2.42;;;1.40;;
51082;SDS011;37131;42.694;23.350;2023-08-07T03:25:50;6.88;;;1.23;;
51082;SDS011;37131;42.694;23.350;2023-08-07T03:28:26;2.60;;;1.40;;
51082;SDS011;37131;42.694;23.350;2023-08-07T03:30:51;2.85;;;1.23;;
51082;SDS011;37131;42.694;23.350;2023-08-07T03:33:16;2.50;;;1.45;;
51082;SDS011;37131;42.694;23.350;2023-08-07T03:35:42;2.78;;;1.27;;
51082;SDS011;37131;42.694;23.350;2023-08-07T03:38:07;1.60;;;0.98;;
51082;SDS011;37131;42.694;23.350;2023-08-07T03:40:33;2.83;;;1.50;;
51082;SDS011;37131;42.694;23.350;2023-08-07T03:42:58;2.42;;;1.20;;
51082;SDS011;37131;42.694;23.350;2023-08-07T03:45:23;3.30;;;1.20;;
51082;SDS011;37131;42.694;23.350;2023-08-07T03:47:49;1.90;;;1.10;;
51082;SDS011;37131;42.694;23.350;2023-08-07T03:50:14;1.55;;;1.08;;
51082;SDS011;37131;42.694;23.350;2023-08-07T03:52:39;1.75;;;1.20;;
51082;SDS011;37131;42.694;23.350;2023-08-07T03:55:05;1.50;;;0.90;;
51082;SDS011;37131;42.694;23.350;2023-08-07T03:57:30;2.38;;;1.20;;
51082;SDS011;37131;42.694;23.350;2023-08-07T03:59:56;1.70;;;1.17;;
51082;SDS011;37131;42.694;23.350;2023-08-07T04:02:21;2.00;;;1.10;;
51082;SDS011;37131;42.694;23.350;2023-08-07T04:04:47;1.88;;;1.08;;
51082;SDS011;37131;42.694;23.350;2023-08-07T04:07:12;2.13;;;1.10;;
51082;SDS011;37131;42.694;23.350;2023-08-07T04:09:38;2.17;;;1.05;;
51082;SDS011;37131;42.694;23.350;2023-08-07T04:12:03;1.90;;;1.10;;
51082;SDS011;37131;42.694;23.350;2023-08-07T04:14:29;2.10;;;1.20;;
51082;SDS011;37131;42.694;23.350;2023-08-07T04:16:54;1.83;;;1.05;;
51082;SDS011;37131;42.694;23.350;2023-08-07T04:19:20;1.77;;;0.98;;
51082;SDS011;37131;42.694;23.350;2023-08-07T04:21:45;3.35;;;1.13;;
51082;SDS011;37131;42.694;23.350;2023-08-07T04:24:11;1.55;;;0.85;;
51082;SDS011;37131;42.694;23.350;2023-08-07T04:26:36;1.50;;;0.88;;
51082;SDS011;37131;42.694;23.350;2023-08-07T04:29:03;1.33;;;1.02;;
51082;SDS011;37131;42.694;23.350;2023-08-07T04:31:29;2.90;;;1.05;;
51082;SDS011;37131;42.694;23.350;2023-08-07T04:33:57;1.63;;;1.00;;
51082;SDS011;37131;42.694;23.350;2023-08-07T04:36:23;1.83;;;0.90;;
51082;SDS011;37131;42.694;23.350;2023-08-07T04:38:49;1.60;;;1.00;;
51082;SDS011;37131;42.694;23.350;2023-08-07T04:41:15;1.65;;;1.05;;
51082;SDS011;37131;42.694;23.350;2023-08-07T04:43:40;1.42;;;0.90;;
51082;SDS011;37131;42.694;23.350;2023-08-07T04:46:07;2.55;;;0.90;;
51082;SDS011;37131;42.694;23.350;2023-08-07T04:48:37;1.25;;;0.80;;
51082;SDS011;37131;42.694;23.350;2023-08-07T04:51:02;3.03;;;1.35;;
51082;SDS011;37131;42.694;23.350;2023-08-07T04:53:28;2.03;;;0.90;;
51082;SDS011;37131;42.694;23.350;2023-08-07T04:55:53;3.28;;;0.98;;
51082;SDS011;37131;42.694;23.350;2023-08-07T04:58:19;1.45;;;0.80;;
51082;SDS011;37131;42.694;23.350;2023-08-07T05:00:44;0.90;;;0.60;;
51082;SDS011;37131;42.694;23.350;2023-08-07T05:03:09;1.23;;;0.90;;
51082;SDS011;37131;42.694;23.350;2023-08-07T05:05:35;1.73;;;1.10;;
51082;SDS011;37131;42.694;23.350;2023-08-07T05:08:00;1.70;;;0.80;;
51082;SDS011;37131;42.694;23.350;2023-08-07T05:10:26;1.52;;;0.90;;
51082;SDS011;37131;42.694;23.350;2023-08-07T05:12:51;2.67;;;0.80;;
51082;SDS011;37131;42.694;23.350;2023-08-07T05:15:20;1.42;;;0.88;;
51082;SDS011;37131;42.694;23.350;2023-08-07T05:17:47;1.50;;;0.85;;
51082;SDS011;37131;42.694;23.350;2023-08-07T05:20:12;2.35;;;0.68;;
51082;SDS011;37131;42.694;23.350;2023-08-07T05:22:38;1.75;;;0.90;;
51082;SDS011;37131;42.694;23.350;2023-08-07T05:25:03;5.50;;;0.93;;
51082;SDS011;37131;42.694;23.350;2023-08-07T05:27:29;1.58;;;0.80;;
51082;SDS011;37131;42.694;23.350;2023-08-07T05:29:55;1.27;;;0.77;;
51082;SDS011;37131;42.694;23.350;2023-08-07T05:32:20;1.48;;;0.70;;
51082;SDS011;37131;42.694;23.350;2023-08-07T05:34:45;2.80;;;0.80;;
51082;SDS011;37131;42.694;23.350;2023-08-07T05:37:11;1.88;;;0.93;;
51082;SDS011;37131;42.694;23.350;2023-08-07T05:39:36;1.85;;;0.90;;
51082;SDS011;37131;42.694;23.350;2023-08-07T05:42:02;0.90;;;0.63;;
51082;SDS011;37131;42.694;23.350;2023-08-07T05:44:28;1.60;;;0.68;;
51082;SDS011;37131;42.694;23.350;2023-08-07T05:46:54;1.75;;;0.70;;
51082;SDS011;37131;42.694;23.350;2023-08-07T05:49:20;1.50;;;0.80;;
51082;SDS011;37131;42.694;23.350;2023-08-07T05:51:46;1.05;;;0.55;;
51082;SDS011;37131;42.694;23.350;2023-08-07T05:54:12;2.65;;;0.60;;
51082;SDS011;37131;42.694;23.350;2023-08-07T05:56:37;1.50;;;0.90;;
51082;SDS011;37131;42.694;23.350;2023-08-07T05:59:03;1.83;;;0.80;;
51082;SDS011;37131;42.694;23.350;2023-08-07T06:01:29;2.88;;;1.00;;
51082;SDS011;37131;42.694;23.350;2023-08-07T06:03:58;1.30;;;0.70;;
51082;SDS011;37131;42.694;23.350;2023-08-07T06:06:24;2.13;;;0.90;;
51082;SDS011;37131;42.694;23.350;2023-08-07T06:08:50;1.27;;;0.70;;
51082;SDS011;37131;42.694;23.350;2023-08-07T06:11:16;1.27;;;0.68;;
51082;SDS011;37131;42.694;23.350;2023-08-07T06:13:42;1.40;;;0.70;;
51082;SDS011;37131;42.694;23.350;2023-08-07T06:16:07;1.23;;;0.70;;
51082;SDS011;37131;42.694;23.350;2023-08-07T06:18:33;1.63;;;0.70;;
51082;SDS011;37131;42.694;23.350;2023-08-07T06:20:59;1.50;;;0.75;;
51082;SDS011;37131;42.694;23.350;2023-08-07T06:23:24;1.00;;;0.70;;
51082;SDS011;37131;42.694;23.350;2023-08-07T06:25:50;1.20;;;0.57;;
51082;SDS011;37131;42.694;23.350;2023-08-07T06:28:15;1.02;;;0.60;;
51082;SDS011;37131;42.694;23.350;2023-08-07T06:30:40;1.20;;;0.70;;
51082;SDS011;37131;42.694;23.350;2023-08-07T06:33:06;0.70;;;0.40;;
51082;SDS011;37131;42.694;23.350;2023-08-07T06:35:36;1.40;;;0.77;;
51082;SDS011;37131;42.694;23.350;2023-08-07T06:38:02;2.30;;;0.40;;
51082;SDS011;37131;42.694;23.350;2023-08-07T06:40:28;2.15;;;0.63;;
51082;SDS011;37131;42.694;23.350;2023-08-07T06:42:53;1.63;;;0.57;;
51082;SDS011;37131;42.694;23.350;2023-08-07T06:45:19;1.35;;;0.60;;
51082;SDS011;37131;42.694;23.350;2023-08-07T06:47:44;0.88;;;0.50;;
51082;SDS011;37131;42.694;23.350;2023-08-07T06:50:10;1.67;;;0.57;;
51082;SDS011;37131;42.694;23.350;2023-08-07T06:52:35;1.25;;;0.50;;
51082;SDS011;37131;42.694;23.350;2023-08-07T06:55:03;0.43;;;0.40;;
51082;SDS011;37131;42.694;23.350;2023-08-07T06:57:28;1.17;;;0.60;;
51082;SDS011;37131;42.694;23.350;2023-08-07T06:59:54;0.77;;;0.30;;
51082;SDS011;37131;42.694;23.350;2023-08-07T07:02:19;0.40;;;0.22;;
51082;SDS011;37131;42.694;23.350;2023-08-07T07:04:45;0.40;;;0.30;;
51082;SDS011;37131;42.694;23.350;2023-08-07T07:07:10;0.52;;;0.32;;
51082;SDS011;37131;42.694;23.350;2023-08-07T07:09:36;0.57;;;0.30;;
51082;SDS011;37131;42.694;23.350;2023-08-07T07:12:01;0.90;;;0.47;;
51082;SDS011;37131;42.694;23.350;2023-08-07T07:14:26;0.55;;;0.30;;
51082;SDS011;37131;42.694;23.350;2023-08-07T07:16:52;0.88;;;0.50;;
51082;SDS011;37131;42.694;23.350;2023-08-07T07:19:17;1.05;;;0.50;;
51082;SDS011;37131;42.694;23.350;2023-08-07T07:21:43;0.80;;;0.45;;
51082;SDS011;37131;42.694;23.350;2023-08-07T07:24:09;0.70;;;0.40;;
51082;SDS011;37131;42.694;23.350;2023-08-07T07:26:34;0.65;;;0.45;;
51082;SDS011;37131;42.694;23.350;2023-08-07T07:29:00;0.55;;;0.40;;
51082;SDS011;37131;42.694;23.350;2023-08-07T07:31:26;1.73;;;0.40;;
51082;SDS011;37131;42.694;23.350;2023-08-07T07:33:51;1.00;;;0.45;;
51082;SDS011;37131;42.694;23.350;2023-08-07T07:36:17;0.88;;;0.40;;
51082;SDS011;37131;42.694;23.350;2023-08-07T07:38:47;2.05;;;0.52;;
51082;SDS011;37131;42.694;23.350;2023-08-07T07:41:13;1.40;;;0.40;;
51082;SDS011;37131;42.694;23.350;2023-08-07T07:43:42;0.98;;;0.50;;
51082;SDS011;37131;42.694;23.350;2023-08-07T07:46:08;0.63;;;0.30;;
51082;SDS011;37131;42.694;23.350;2023-08-07T07:48:33;0.57;;;0.22;;
51082;SDS011;37131;42.694;23.350;2023-08-07T07:50:59;0.63;;;0.40;;
51082;SDS011;37131;42.694;23.350;2023-08-07T07:53:26;1.33;;;0.40;;
51082;SDS011;37131;42.694;23.350;2023-08-07T07:55:51;2.47;;;0.30;;
51082;SDS011;37131;42.694;23.350;2023-08-07T07:58:17;0.20;;;0.17;;
51082;SDS011;37131;42.694;23.350;2023-08-07T08:00:42;0.70;;;0.30;;
51082;SDS011;37131;42.694;23.350;2023-08-07T08:03:07;0.73;;;0.20;;
51082;SDS011;37131;42.694;23.350;2023-08-07T08:05:33;1.38;;;0.50;;
51082;SDS011;37131;42.694;23.350;2023-08-07T08:07:59;0.57;;;0.30;;
51082;SDS011;37131;42.694;23.350;2023-08-07T08:10:26;1.20;;;0.30;;
51082;SDS011;37131;42.694;23.350;2023-08-07T08:12:54;1.42;;;0.30;;
51082;SDS011;37131;42.694;23.350;2023-08-07T08:15:20;0.50;;;0.30;;
51082;SDS011;37131;42.694;23.350;2023-08-07T08:17:46;0.30;;;0.20;;
51082;SDS011;37131;42.694;23.350;2023-08-07T08:20:12;0.93;;;0.30;;
51082;SDS011;37131;42.694;23.350;2023-08-07T08:22:40;0.35;;;0.30;;
51082;SDS011;37131;42.694;23.350;2023-08-07T08:25:06;1.17;;;0.32;;
51082;SDS011;37131;42.694;23.350;2023-08-07T08:27:34;1.17;;;0.35;;
51082;SDS011;37131;42.694;23.350;2023-08-07T08:29:59;0.38;;;0.13;;
51082;SDS011;37131;42.694;23.350;2023-08-07T08:32:25;1.02;;;0.28;;
51082;SDS011;37131;42.694;23.350;2023-08-07T08:34:50;1.17;;;0.35;;
51082;SDS011;37131;42.694;23.350;2023-08-07T08:37:15;0.60;;;0.20;;
51082;SDS011;37131;42.694;23.350;2023-08-07T08:39:41;0.30;;;0.20;;
51082;SDS011;37131;42.694;23.350;2023-08-07T08:42:08;0.73;;;0.30;;
51082;SDS011;37131;42.694;23.350;2023-08-07T08:44:36;0.50;;;0.20;;
51082;SDS011;37131;42.694;23.350;2023-08-07T08:47:04;0.70;;;0.20;;
51082;SDS011;37131;42.694;23.350;2023-08-07T08:49:33;0.38;;;0.20;;
51082;SDS011;37131;42.694;23.350;2023-08-07T08:52:02;1.17;;;0.40;;
51082;SDS011;37131;42.694;23.350;2023-08-07T08:54:29;1.63;;;0.40;;
51082;SDS011;37131;42.694;23.350;2023-08-07T08:56:55;0.57;;;0.30;;
51082;SDS011;37131;42.694;23.350;2023-08-07T08:59:22;0.70;;;0.25;;
51082;SDS011;37131;42.694;23.350;2023-08-07T09:01:47;1.70;;;0.40;;
51082;SDS011;37131;42.694;23.350;2023-08-07T09:04:16;0.40;;;0.15;;
51082;SDS011;37131;42.694;23.350;2023-08-07T09:06:42;1.83;;;0.50;;
51082;SDS011;37131;42.694;23.350;2023-08-07T09:09:08;1.58;;;0.50;;
51082;SDS011;37131;42.694;23.350;2023-08-07T09:11:34;1.33;;;0.60;;
51082;SDS011;37131;42.694;23.350;2023-08-07T09:14:01;0.63;;;0.28;;
51082;SDS011;37131;42.694;23.350;2023-08-07T09:16:28;2.05;;;0.50;;
51082;SDS011;37131;42.694;23.350;2023-08-07T09:18:55;0.98;;;0.52;;
51082;SDS011;37131;42.694;23.350;2023-08-07T09:21:20;0.82;;;0.43;;
51082;SDS011;37131;42.694;23.350;2023-08-07T09:23:46;0.43;;;0.32;;
51082;SDS011;37131;42.694;23.350;2023-08-07T09:26:12;1.02;;;0.43;;
51082;SDS011;37131;42.694;23.350;2023-08-07T09:28:37;0.80;;;0.40;;
51082;SDS011;37131;42.694;23.350;2023-08-07T09:31:05;0.80;;;0.30;;
51082;SDS011;37131;42.694;23.350;2023-08-07T09:33:33;1.02;;;0.40;;
51082;SDS011;37131;42.694;23.350;2023-08-07T09:36:01;1.75;;;0.40;;
51082;SDS011;37131;42.694;23.350;2023-08-07T09:38:28;0.80;;;0.40;;
51082;SDS011;37131;42.694;23.350;2023-08-07T09:40:58;1.27;;;0.45;;
51082;SDS011;37131;42.694;23.350;2023-08-07T09:43:24;2.47;;;0.50;;
51082;SDS011;37131;42.694;23.350;2023-08-07T09:45:49;1.52;;;0.40;;
51082;SDS011;37131;42.694;23.350;2023-08-07T09:48:22;0.70;;;0.40;;
51082;SDS011;37131;42.694;23.350;2023-08-07T09:50:49;1.33;;;0.30;;
51082;SDS011;37131;42.694;23.350;2023-08-07T09:53:15;0.50;;;0.30;;
51082;SDS011;37131;42.694;23.350;2023-08-07T09:55:41;1.25;;;0.30;;
51082;SDS011;37131;42.694;23.350;2023-08-07T09:58:08;3.28;;;0.30;;
51082;SDS011;37131;42.694;23.350;2023-08-07T10:00:34;0.82;;;0.45;;
51082;SDS011;37131;42.694;23.350;2023-08-07T10:03:00;0.52;;;0.25;;
51082;SDS011;37131;42.694;23.350;2023-08-07T10:05:27;0.60;;;0.30;;
51082;SDS011;37131;42.694;23.350;2023-08-07T10:07:52;0.85;;;0.40;;
51082;SDS011;37131;42.694;23.350;2023-08-07T10:10:19;0.40;;;0.17;;
51082;SDS011;37131;42.694;23.350;2023-08-07T10:12:45;1.42;;;0.30;;
51082;SDS011;37131;42.694;23.350;2023-08-07T10:15:13;0.60;;;0.40;;
51082;SDS011;37131;42.694;23.350;2023-08-07T10:17:39;0.68;;;0.30;;
51082;SDS011;37131;42.694;23.350;2023-08-07T10:20:06;0.80;;;0.38;;
51082;SDS011;37131;42.694;23.350;2023-08-07T10:22:33;1.05;;;0.40;;
51082;SDS011;37131;42.694;23.350;2023-08-07T10:25:03;0.63;;;0.30;;
51082;SDS011;37131;42.694;23.350;2023-08-07T10:27:29;0.70;;;0.40;;
51082;SDS011;37131;42.694;23.350;2023-08-07T10:29:58;0.88;;;0.30;;
51082;SDS011;37131;42.694;23.350;2023-08-07T10:32:26;1.15;;;0.50;;
51082;SDS011;37131;42.694;23.350;2023-08-07T10:34:53;1.15;;;0.30;;
51082;SDS011;37131;42.694;23.350;2023-08-07T10:40:07;0.70;;;0.32;;
51082;SDS011;37131;42.694;23.350;2023-08-07T10:45:41;0.77;;;0.28;;
51082;SDS011;37131;42.694;23.350;2023-08-07T10:48:07;0.80;;;0.40;;
51082;SDS011;37131;42.694;23.350;2023-08-07T10:50:57;0.77;;;0.30;;
51082;SDS011;37131;42.694;23.350;2023-08-07T10:53:31;0.73;;;0.40;;
51082;SDS011;37131;42.694;23.350;2023-08-07T10:55:57;0.55;;;0.30;;
51082;SDS011;37131;42.694;23.350;2023-08-07T10:58:39;0.70;;;0.40;;
51082;SDS011;37131;42.694;23.350;2023-08-07T11:04:13;1.35;;;0.30;;
51082;SDS011;37131;42.694;23.350;2023-08-07T11:06:39;0.63;;;0.40;;
51082;SDS011;37131;42.694;23.350;2023-08-07T11:09:06;1.40;;;0.38;;
51082;SDS011;37131;42.694;23.350;2023-08-07T11:11:37;0.57;;;0.30;;
51082;SDS011;37131;42.694;23.350;2023-08-07T11:14:07;0.50;;;0.30;;
51082;SDS011;37131;42.694;23.350;2023-08-07T11:16:33;0.70;;;0.30;;
51082;SDS011;37131;42.694;23.350;2023-08-07T11:18:59;0.68;;;0.32;;
51082;SDS011;37131;42.694;23.350;2023-08-07T11:21:25;1.00;;;0.38;;
51082;SDS011;37131;42.694;23.350;2023-08-07T11:23:51;0.70;;;0.43;;
51082;SDS011;37131;42.694;23.350;2023-08-07T11:26:16;0.65;;;0.40;;
51082;SDS011;37131;42.694;23.350;2023-08-07T11:28:42;0.40;;;0.20;;
51082;SDS011;37131;42.694;23.350;2023-08-07T11:31:08;0.45;;;0.30;;
51082;SDS011;37131;42.694;23.350;2023-08-07T11:33:34;0.77;;;0.30;;
51082;SDS011;37131;42.694;23.350;2023-08-07T11:36:01;0.75;;;0.20;;
51082;SDS011;37131;42.694;23.350;2023-08-07T11:40:56;0.70;;;0.30;;
51082;SDS011;37131;42.694;23.350;2023-08-07T11:43:23;1.48;;;0.38;;
51082;SDS011;37131;42.694;23.350;2023-08-07T11:45:49;0.50;;;0.30;;
51082;SDS011;37131;42.694;23.350;2023-08-07T11:48:15;0.60;;;0.30;;
51082;SDS011;37131;42.694;23.350;2023-08-07T11:50:40;0.70;;;0.40;;
51082;SDS011;37131;42.694;23.350;2023-08-07T11:53:06;0.85;;;0.50;;
51082;SDS011;37131;42.694;23.350;2023-08-07T11:55:32;0.77;;;0.38;;
51082;SDS011;37131;42.694;23.350;2023-08-07T11:57:59;0.75;;;0.47;;
51082;SDS011;37131;42.694;23.350;2023-08-07T12:00:28;0.65;;;0.32;;
51082;SDS011;37131;42.694;23.350;2023-08-07T12:02:54;0.40;;;0.15;;
51082;SDS011;37131;42.694;23.350;2023-08-07T12:05:19;1.58;;;0.35;;
51082;SDS011;37131;42.694;23.350;2023-08-07T12:07:46;1.50;;;0.50;;
51082;SDS011;37131;42.694;23.350;2023-08-07T12:10:13;0.57;;;0.40;;
51082;SDS011;37131;42.694;23.350;2023-08-07T12:12:38;0.68;;;0.35;;
51082;SDS011;37131;42.694;23.350;2023-08-07T12:15:07;0.93;;;0.40;;
51082;SDS011;37131;42.694;23.350;2023-08-07T12:17:33;0.60;;;0.30;;
51082;SDS011;37131;42.694;23.350;2023-08-07T12:20:00;2.97;;;0.43;;
51082;SDS011;37131;42.694;23.350;2023-08-07T12:22:27;0.80;;;0.40;;
51082;SDS011;37131;42.694;23.350;2023-08-07T12:24:55;1.67;;;0.50;;
51082;SDS011;37131;42.694;23.350;2023-08-07T12:27:21;0.77;;;0.40;;
51082;SDS011;37131;42.694;23.350;2023-08-07T12:29:46;0.63;;;0.32;;
51082;SDS011;37131;42.694;23.350;2023-08-07T12:32:11;0.95;;;0.40;;
51082;SDS011;37131;42.694;23.350;2023-08-07T12:34:37;1.75;;;0.40;;
51082;SDS011;37131;42.694;23.350;2023-08-07T12:37:05;0.82;;;0.43;;
51082;SDS011;37131;42.694;23.350;2023-08-07T12:39:31;0.90;;;0.43;;
51082;SDS011;37131;42.694;23.350;2023-08-07T12:41:57;0.85;;;0.40;;
51082;SDS011;37131;42.694;23.350;2023-08-07T12:44:23;1.55;;;0.57;;
51082;SDS011;37131;42.694;23.350;2023-08-07T12:46:48;1.02;;;0.50;;
51082;SDS011;37131;42.694;23.350;2023-08-07T12:49:14;0.98;;;0.30;;
51082;SDS011;37131;42.694;23.350;2023-08-07T12:51:40;0.63;;;0.40;;
51082;SDS011;37131;42.694;23.350;2023-08-07T12:54:05;1.67;;;0.50;;
51082;SDS011;37131;42.694;23.350;2023-08-07T12:56:31;0.50;;;0.40;;
51082;SDS011;37131;42.694;23.350;2023-08-07T12:58:56;0.73;;;0.50;;
51082;SDS011;37131;42.694;23.350;2023-08-07T13:01:21;0.75;;;0.43;;
51082;SDS011;37131;42.694;23.350;2023-08-07T13:03:47;0.70;;;0.30;;
51082;SDS011;37131;42.694;23.350;2023-08-07T13:06:12;1.00;;;0.50;;
51082;SDS011;37131;42.694;23.350;2023-08-07T13:08:38;1.52;;;0.50;;
51082;SDS011;37131;42.694;23.350;2023-08-07T13:11:04;0.95;;;0.30;;
51082;SDS011;37131;42.694;23.350;2023-08-07T13:13:29;0.70;;;0.40;;
51082;SDS011;37131;42.694;23.350;2023-08-07T13:15:55;0.95;;;0.35;;
51082;SDS011;37131;42.694;23.350;2023-08-07T13:18:21;0.40;;;0.22;;
51082;SDS011;37131;42.694;23.350;2023-08-07T13:20:47;1.83;;;0.50;;
51082;SDS011;37131;42.694;23.350;2023-08-07T13:23:13;0.73;;;0.45;;
51082;SDS011;37131;42.694;23.350;2023-08-07T13:25:38;0.52;;;0.30;;
51082;SDS011;37131;42.694;23.350;2023-08-07T13:28:04;1.40;;;0.40;;
51082;SDS011;37131;42.694;23.350;2023-08-07T13:30:32;1.42;;;0.40;;
51082;SDS011;37131;42.694;23.350;2023-08-07T13:32:57;1.00;;;0.40;;
51082;SDS011;37131;42.694;23.350;2023-08-07T13:35:23;2.72;;;0.43;;
51082;SDS011;37131;42.694;23.350;2023-08-07T13:37:48;2.53;;;0.50;;
51082;SDS011;37131;42.694;23.350;2023-08-07T13:40:14;1.60;;;0.52;;
51082;SDS011;37131;42.694;23.350;2023-08-07T13:42:39;2.15;;;0.40;;
51082;SDS011;37131;42.694;23.350;2023-08-07T13:45:05;0.55;;;0.35;;
51082;SDS011;37131;42.694;23.350;2023-08-07T13:47:30;0.60;;;0.30;;
51082;SDS011;37131;42.694;23.350;2023-08-07T13:49:56;0.63;;;0.30;;
51082;SDS011;37131;42.694;23.350;2023-08-07T13:52:23;0.60;;;0.40;;
51082;SDS011;37131;42.694;23.350;2023-08-07T13:54:48;0.80;;;0.40;;
51082;SDS011;37131;42.694;23.350;2023-08-07T13:57:15;0.90;;;0.40;;
51082;SDS011;37131;42.694;23.350;2023-08-07T13:59:40;0.68;;;0.45;;
51082;SDS011;37131;42.694;23.350;2023-08-07T14:02:06;0.65;;;0.30;;
51082;SDS011;37131;42.694;23.350;2023-08-07T14:04:32;0.55;;;0.40;;
51082;SDS011;37131;42.694;23.350;2023-08-07T14:06:57;0.45;;;0.30;;
51082;SDS011;37131;42.694;23.350;2023-08-07T14:09:23;0.80;;;0.50;;
51082;SDS011;37131;42.694;23.350;2023-08-07T14:11:49;0.63;;;0.32;;
51082;SDS011;37131;42.694;23.350;2023-08-07T14:14:15;0.68;;;0.40;;
51082;SDS011;37131;42.694;23.350;2023-08-07T14:16:40;1.13;;;0.50;;
51082;SDS011;37131;42.694;23.350;2023-08-07T14:19:06;2.60;;;0.60;;
51082;SDS011;37131;42.694;23.350;2023-08-07T14:21:31;1.05;;;0.47;;
51082;SDS011;37131;42.694;23.350;2023-08-07T14:23:56;1.38;;;0.43;;
51082;SDS011;37131;42.694;23.350;2023-08-07T14:26:22;0.43;;;0.30;;
51082;SDS011;37131;42.694;23.350;2023-08-07T14:28:47;1.00;;;0.30;;
51082;SDS011;37131;42.694;23.350;2023-08-07T14:31:13;2.28;;;0.43;;
51082;SDS011;37131;42.694;23.350;2023-08-07T14:33:38;0.82;;;0.40;;
51082;SDS011;37131;42.694;23.350;2023-08-07T14:36:04;1.40;;;0.30;;
51082;SDS011;37131;42.694;23.350;2023-08-07T14:38:30;0.80;;;0.57;;
51082;SDS011;37131;42.694;23.350;2023-08-07T14:40:56;1.63;;;0.50;;